Time;durP1;ratioP1;P1;durP2;ratioP2;P2;SDS_P1;SDS_P2;PMS_P1;PMS_P2;Temp;Humidity;BMP_temperature;BMP_pressure;BME280_temperature;BME280_humidity;BME280_pressure;Samples;Min_cycle;Max_cycle;Signal;HPM_P1;HPM_P2
2020/12/28 00:02:11;;;;;;;5.33;4.00;;;4.30;1.00;;;;;;5033079;28;20209;-60
2020/12/28 00:04:38;;;;;;;9.13;4.80;;;4.30;1.00;;;;;;5037237;28;20188;-61
2020/12/28 00:07:05;;;;;;;5.57;4.83;;;4.20;1.00;;;;;;5033430;28;20445;-61
2020/12/28 00:09:32;;;;;;;7.47;5.47;;;4.30;1.00;;;;;;5033337;28;20465;-59
2020/12/28 00:11:59;;;;;;;6.37;4.73;;;4.30;1.00;;;;;;5032127;28;20447;-61
2020/12/28 00:14:25;;;;;;;5.33;4.80;;;4.30;1.00;;;;;;5034816;28;20764;-61
2020/12/28 00:16:52;;;;;;;6.87;4.43;;;4.30;1.00;;;;;;5032776;28;20466;-61
2020/12/28 00:19:18;;;;;;;5.70;4.30;;;4.40;1.00;;;;;;5033436;28;20450;-61
2020/12/28 00:21:44;;;;;;;6.33;4.33;;;4.30;1.00;;;;;;5031322;28;20786;-60
2020/12/28 00:24:10;;;;;;;5.93;4.47;;;4.30;1.00;;;;;;5034194;28;20515;-61
2020/12/28 00:26:37;;;;;;;8.07;5.30;;;4.30;1.00;;;;;;5019455;28;20454;-61
2020/12/28 00:29:04;;;;;;;5.37;3.80;;;4.30;1.00;;;;;;5029712;28;20919;-60
2020/12/28 00:31:33;;;;;;;5.70;3.87;;;4.30;1.00;;;;;;5033242;28;20514;-61
2020/12/28 00:34:00;;;;;;;5.83;4.80;;;4.40;1.00;;;;;;5032099;28;20507;-61
2020/12/28 00:36:25;;;;;;;4.80;4.30;;;4.40;1.00;;;;;;5034813;28;20519;-60
2020/12/28 00:38:51;;;;;;;5.37;4.70;;;4.40;1.00;;;;;;5033770;28;20876;-60
2020/12/28 00:41:17;;;;;;;4.43;3.90;;;4.40;1.00;;;;;;5034738;28;20184;-61
2020/12/28 00:43:43;;;;;;;7.10;4.80;;;4.40;1.00;;;;;;5036235;28;20183;-60
2020/12/28 00:46:10;;;;;;;5.67;4.30;;;4.40;1.00;;;;;;5033574;28;20206;-60
2020/12/28 00:48:36;;;;;;;5.90;5.00;;;4.40;1.00;;;;;;5033109;28;20456;-60
2020/12/28 00:51:03;;;;;;;5.40;4.50;;;4.50;1.00;;;;;;5034031;28;20423;-61
2020/12/28 00:53:29;;;;;;;8.00;4.67;;;4.60;1.00;;;;;;5032457;28;20188;-60
2020/12/28 00:55:55;;;;;;;4.90;3.93;;;4.60;1.00;;;;;;5031999;28;20489;-60
2020/12/28 00:58:21;;;;;;;5.17;4.47;;;4.60;1.00;;;;;;5032111;28;20465;-61
2020/12/28 01:00:47;;;;;;;5.63;5.03;;;4.50;1.00;;;;;;5034129;28;20470;-60
2020/12/28 01:03:13;;;;;;;5.17;4.57;;;4.60;1.00;;;;;;5033029;28;20174;-60
2020/12/28 01:05:38;;;;;;;8.33;4.70;;;4.60;1.00;;;;;;5033017;28;20452;-60
2020/12/28 01:08:04;;;;;;;6.43;5.00;;;4.60;1.00;;;;;;5033965;28;20187;-60
2020/12/28 01:10:30;;;;;;;6.03;4.77;;;4.60;1.00;;;;;;5032551;28;20294;-60
2020/12/28 01:12:55;;;;;;;5.80;4.70;;;4.70;1.00;;;;;;5033590;28;20182;-60
2020/12/28 01:15:21;;;;;;;5.17;4.63;;;4.60;1.00;;;;;;5033391;28;20186;-61
2020/12/28 01:17:46;;;;;;;5.87;4.73;;;4.70;1.00;;;;;;5034791;28;20586;-61
2020/12/28 01:20:12;;;;;;;11.10;5.60;;;4.70;1.00;;;;;;5036699;28;20198;-60
2020/12/28 01:22:38;;;;;;;4.47;4.07;;;4.70;1.00;;;;;;5035838;28;20187;-61
2020/12/28 01:25:04;;;;;;;6.13;4.97;;;4.80;1.00;;;;;;5036156;28;20188;-61
2020/12/28 01:27:29;;;;;;;8.77;5.23;;;4.80;1.00;;;;;;5036363;28;20242;-61
2020/12/28 01:29:55;;;;;;;6.33;4.47;;;4.80;1.00;;;;;;5037224;28;20565;-61
2020/12/28 01:32:21;;;;;;;6.20;4.80;;;4.80;1.00;;;;;;5036418;28;20199;-61
2020/12/28 01:34:46;;;;;;;7.33;5.30;;;4.80;1.00;;;;;;5036844;28;20181;-61
2020/12/28 01:37:12;;;;;;;7.40;5.93;;;4.70;1.00;;;;;;5036424;28;20312;-61
2020/12/28 01:39:39;;;;;;;7.43;5.40;;;4.80;1.00;;;;;;5035390;28;20195;-60
2020/12/28 01:42:05;;;;;;;6.50;5.40;;;4.80;1.00;;;;;;5035287;28;20209;-60
2020/12/28 01:44:31;;;;;;;5.60;5.03;;;4.90;1.00;;;;;;5036589;28;20525;-60
2020/12/28 01:46:57;;;;;;;6.60;4.67;;;5.00;1.00;;;;;;5035305;28;20528;-61
2020/12/28 01:49:22;;;;;;;6.17;5.27;;;5.00;1.00;;;;;;5044929;28;20200;-61
2020/12/28 01:51:48;;;;;;;6.37;4.70;;;5.00;1.00;;;;;;5038974;28;20277;-61
2020/12/28 01:54:14;;;;;;;6.10;5.17;;;5.00;1.00;;;;;;5035846;28;20214;-61
2020/12/28 01:56:41;;;;;;;5.97;4.57;;;5.00;1.00;;;;;;5036822;28;20423;-60
2020/12/28 01:59:08;;;;;;;5.80;5.17;;;5.10;1.00;;;;;;5033158;28;20188;-61
2020/12/28 02:01:41;;;;;;;6.53;4.80;;;5.10;1.00;;;;;;5035294;28;20497;-61
2020/12/28 02:04:08;;;;;;;5.77;5.20;;;5.00;1.00;;;;;;5033990;28;20973;-64
2020/12/28 02:06:34;;;;;;;5.77;5.00;;;5.00;1.00;;;;;;5034123;28;20467;-61
2020/12/28 02:09:00;;;;;;;5.80;5.07;;;5.00;1.00;;;;;;5035629;28;20467;-61
2020/12/28 02:11:29;;;;;;;6.17;4.53;;;5.10;1.00;;;;;;5036583;28;20497;-61
2020/12/28 02:13:56;;;;;;;6.53;5.30;;;5.10;1.00;;;;;;5034642;28;20473;-61
2020/12/28 02:16:21;;;;;;;6.10;5.20;;;5.10;1.00;;;;;;5034882;28;20483;-61
2020/12/28 02:18:48;;;;;;;6.80;4.83;;;5.20;1.00;;;;;;5036567;28;20459;-60
2020/12/28 02:21:13;;;;;;;6.67;4.90;;;5.10;1.00;;;;;;5035929;28;20188;-61
2020/12/28 02:23:42;;;;;;;5.10;4.47;;;5.10;1.00;;;;;;5034862;28;20446;-60
2020/12/28 02:26:07;;;;;;;7.20;4.80;;;5.20;1.00;;;;;;5036183;28;20576;-59
2020/12/28 02:28:33;;;;;;;5.80;4.40;;;5.20;1.00;;;;;;5035102;28;20507;-60
2020/12/28 02:30:59;;;;;;;5.53;4.60;;;5.20;1.00;;;;;;5034380;28;20236;-59
2020/12/28 02:33:24;;;;;;;6.50;5.47;;;5.20;1.00;;;;;;5036207;28;20169;-61
2020/12/28 02:35:50;;;;;;;8.90;5.43;;;5.20;1.00;;;;;;5035644;28;20211;-59
2020/12/28 02:38:15;;;;;;;5.43;4.33;;;5.30;1.00;;;;;;5036040;28;20189;-61
2020/12/28 02:40:41;;;;;;;5.00;4.33;;;5.40;1.00;;;;;;5036597;28;20669;-61
2020/12/28 02:43:07;;;;;;;5.57;4.93;;;5.30;1.00;;;;;;5035252;28;20199;-62
2020/12/28 02:45:32;;;;;;;6.00;4.43;;;5.30;1.00;;;;;;5035825;28;20197;-62
2020/12/28 02:47:58;;;;;;;6.07;4.77;;;5.30;1.00;;;;;;5033861;28;20263;-62
2020/12/28 02:50:24;;;;;;;9.23;5.27;;;5.30;1.00;;;;;;5035779;28;20651;-61
2020/12/28 02:52:49;;;;;;;7.23;5.13;;;5.30;1.00;;;;;;5034462;28;20579;-60
2020/12/28 02:55:15;;;;;;;6.30;5.40;;;5.20;1.00;;;;;;5034804;28;20211;-61
2020/12/28 02:57:41;;;;;;;4.43;3.57;;;5.20;1.00;;;;;;5034711;28;20203;-60
2020/12/28 03:00:06;;;;;;;6.10;4.63;;;5.20;1.00;;;;;;5024313;28;20205;-61
2020/12/28 03:02:32;;;;;;;5.93;5.33;;;5.20;1.00;;;;;;5014805;28;20227;-61
2020/12/28 03:04:58;;;;;;;4.87;4.37;;;5.20;1.00;;;;;;5031520;28;20196;-60
2020/12/28 03:07:23;;;;;;;5.43;4.50;;;5.20;1.00;;;;;;5033926;28;20617;-60
2020/12/28 03:09:49;;;;;;;6.10;4.90;;;5.20;1.00;;;;;;5033325;28;20209;-61
2020/12/28 03:12:14;;;;;;;6.30;4.97;;;5.30;1.00;;;;;;5035250;28;20215;-61
2020/12/28 03:14:40;;;;;;;6.27;5.17;;;5.50;1.00;;;;;;5033941;28;20195;-62
2020/12/28 03:17:06;;;;;;;5.27;4.37;;;5.50;1.00;;;;;;5035475;28;20203;-61
2020/12/28 03:19:31;;;;;;;7.77;6.10;;;5.50;1.00;;;;;;5035322;28;20214;-60
2020/12/28 03:21:58;;;;;;;6.73;6.07;;;5.40;1.00;;;;;;5032685;28;20828;-61
2020/12/28 03:24:24;;;;;;;7.43;5.03;;;7.80;1.00;;;;;;5034916;28;20272;-60
2020/12/28 03:26:49;;;;;;;7.13;5.23;;;5.40;1.00;;;;;;5035151;28;20507;-61
2020/12/28 03:29:15;;;;;;;7.00;5.07;;;5.30;1.00;;;;;;5030309;28;20640;-62
2020/12/28 03:31:41;;;;;;;6.00;4.80;;;5.20;1.00;;;;;;5034890;28;20550;-61
2020/12/28 03:34:08;;;;;;;5.63;5.07;;;5.20;1.00;;;;;;5034349;28;20187;-61
2020/12/28 03:36:34;;;;;;;8.47;4.83;;;5.30;1.00;;;;;;5035252;28;20434;-60
2020/12/28 03:39:00;;;;;;;7.20;4.20;;;5.20;1.00;;;;;;5032741;28;20820;-60
2020/12/28 03:41:26;;;;;;;6.47;4.40;;;5.10;1.00;;;;;;5033906;28;20506;-61
2020/12/28 03:43:51;;;;;;;8.10;5.40;;;5.10;1.00;;;;;;5034776;28;20510;-61
2020/12/28 03:46:17;;;;;;;8.40;4.93;;;5.10;1.00;;;;;;5034071;28;20232;-60
2020/12/28 03:48:43;;;;;;;6.27;5.13;;;5.10;1.00;;;;;;5032305;28;20209;-59
2020/12/28 03:51:08;;;;;;;6.07;5.33;;;5.00;1.00;;;;;;5033786;28;20176;-61
2020/12/28 03:53:34;;;;;;;5.73;5.07;;;5.10;1.00;;;;;;5033810;28;20190;-60
2020/12/28 03:55:59;;;;;;;6.90;6.03;;;5.00;1.00;;;;;;5032114;28;20890;-60
2020/12/28 03:58:25;;;;;;;7.50;5.57;;;5.00;1.00;;;;;;5033153;28;20184;-61
2020/12/28 04:00:51;;;;;;;6.90;5.80;;;5.10;1.00;;;;;;5033292;28;20185;-60
2020/12/28 04:03:16;;;;;;;6.27;4.57;;;5.00;1.00;;;;;;5033798;28;20201;-61
2020/12/28 04:05:42;;;;;;;9.07;5.40;;;5.00;1.00;;;;;;5032761;28;20643;-60
2020/12/28 04:08:08;;;;;;;7.13;6.07;;;5.00;1.00;;;;;;5031621;28;20187;-60
2020/12/28 04:10:34;;;;;;;5.40;4.90;;;5.00;1.00;;;;;;5029825;28;20904;-60
2020/12/28 04:13:00;;;;;;;6.97;5.73;;;4.90;1.00;;;;;;5031567;28;20195;-60
2020/12/28 04:15:25;;;;;;;7.00;5.30;;;4.90;1.00;;;;;;5034617;28;20443;-61
2020/12/28 04:17:51;;;;;;;8.50;5.60;;;4.90;1.00;;;;;;5014634;28;20452;-61
2020/12/28 04:20:17;;;;;;;8.10;6.53;;;4.90;1.00;;;;;;4997312;28;20236;-60
2020/12/28 04:22:42;;;;;;;7.90;5.30;;;4.90;1.00;;;;;;5025656;28;20268;-60
2020/12/28 04:25:16;;;;;;;7.90;6.03;;;4.90;1.00;;;;;;5033358;28;20534;-61
2020/12/28 04:27:42;;;;;;;7.97;6.40;;;5.00;1.00;;;;;;5029331;28;20185;-61
2020/12/28 04:30:08;;;;;;;6.60;5.57;;;4.90;1.00;;;;;;5033284;28;20478;-60
2020/12/28 04:32:34;;;;;;;6.10;5.07;;;4.90;1.00;;;;;;5033595;28;20435;-60
2020/12/28 04:35:00;;;;;;;9.77;6.83;;;4.90;1.00;;;;;;5032891;28;20533;-61
2020/12/28 04:37:25;;;;;;;7.70;6.20;;;4.90;1.00;;;;;;5034148;28;20181;-60
2020/12/28 04:39:51;;;;;;;9.00;7.40;;;4.90;1.00;;;;;;5030307;28;20188;-62
2020/12/28 04:42:27;;;;;;;8.60;6.10;;;4.90;1.00;;;;;;5031769;28;20193;-60
2020/12/28 04:44:53;;;;;;;8.63;5.93;;;4.90;1.00;;;;;;5029735;28;20192;-60
2020/12/28 04:47:19;;;;;;;7.13;5.03;;;5.00;1.00;;;;;;5021274;28;20444;-60
2020/12/28 04:49:46;;;;;;;7.50;6.00;;;5.00;1.00;;;;;;5026918;28;20521;-62
2020/12/28 04:52:13;;;;;;;6.27;4.93;;;4.90;1.00;;;;;;5038132;28;20423;-60
2020/12/28 04:54:40;;;;;;;9.57;6.70;;;4.90;1.00;;;;;;5036221;28;20439;-62
2020/12/28 04:57:07;;;;;;;7.00;5.47;;;4.90;1.00;;;;;;5053002;28;20466;-61
2020/12/28 04:59:32;;;;;;;7.23;6.30;;;4.90;1.00;;;;;;5047039;28;20469;-60
2020/12/28 05:01:58;;;;;;;7.63;6.00;;;4.90;1.00;;;;;;5040374;28;20813;-61
2020/12/28 05:04:24;;;;;;;7.10;6.33;;;4.90;1.00;;;;;;5035291;28;20189;-58
2020/12/28 05:07:00;;;;;;;8.63;5.00;;;5.10;1.00;;;;;;5036702;28;20212;-64
2020/12/28 05:09:26;;;;;;;7.23;5.13;;;5.10;1.00;;;;;;5034680;28;20524;-58
2020/12/28 05:12:03;;;;;;;7.40;5.70;;;5.30;1.00;;;;;;5033901;28;20988;-58
2020/12/28 05:14:29;;;;;;;7.20;5.77;;;5.20;1.00;;;;;;5037365;28;20510;-58
2020/12/28 05:16:59;;;;;;;6.53;5.60;;;5.30;1.00;;;;;;5037393;28;20438;-58
2020/12/28 05:19:26;;;;;;;7.77;5.40;;;5.40;1.00;;;;;;5055376;28;20426;-65
2020/12/28 05:21:53;;;;;;;6.80;5.63;;;5.60;1.00;;;;;;5057547;28;20432;-61
2020/12/28 05:24:19;;;;;;;4.80;4.20;;;5.40;1.00;;;;;;5057480;28;20421;-59
2020/12/28 05:26:45;;;;;;;7.60;5.43;;;5.40;1.00;;;;;;5041206;28;20757;-61
2020/12/28 05:29:26;;;;;;;7.87;5.90;;;5.30;1.00;;;;;;5037495;28;20204;-60
2020/12/28 05:31:53;;;;;;;8.40;5.60;;;5.30;1.00;;;;;;5037267;28;20459;-60
2020/12/28 05:34:20;;;;;;;7.93;5.27;;;5.20;1.00;;;;;;5036498;28;20415;-59
2020/12/28 05:36:50;;;;;;;6.33;5.47;;;5.20;1.00;;;;;;5037186;28;20915;-61
2020/12/28 05:39:18;;;;;;;7.40;5.87;;;5.20;1.00;;;;;;5018590;28;20428;-61
2020/12/28 05:41:57;;;;;;;6.63;5.33;;;5.10;1.00;;;;;;5032405;28;20470;-71
2020/12/28 05:44:24;;;;;;;5.60;5.00;;;5.20;1.00;;;;;;5036050;28;20429;-60
2020/12/28 05:47:08;;;;;;;7.50;5.67;;;5.20;1.00;;;;;;5035953;28;20895;-60
2020/12/28 05:49:38;;;;;;;7.03;5.53;;;5.20;1.00;;;;;;5045645;28;20469;-71
2020/12/28 05:52:06;;;;;;;6.37;4.93;;;5.20;1.00;;;;;;5056940;28;20413;-69
2020/12/28 05:54:33;;;;;;;6.03;5.43;;;5.20;1.00;;;;;;5055923;28;20882;-70
2020/12/28 05:56:59;;;;;;;6.20;4.67;;;5.20;1.00;;;;;;5053776;28;20486;-60
2020/12/28 05:59:25;;;;;;;6.97;5.27;;;5.10;1.00;;;;;;5036626;28;20791;-60
2020/12/28 06:01:51;;;;;;;7.63;5.80;;;5.10;1.00;;;;;;5051239;28;20187;-59
2020/12/28 06:04:18;;;;;;;5.10;4.33;;;5.10;1.00;;;;;;5036094;28;20467;-60
2020/12/28 06:06:45;;;;;;;7.47;5.43;;;5.10;1.00;;;;;;5036472;28;20499;-69
2020/12/28 06:09:14;;;;;;;7.63;5.20;;;5.10;1.00;;;;;;5035882;28;20585;-69
2020/12/28 06:11:40;;;;;;;7.17;5.93;;;5.10;1.00;;;;;;5036467;28;20546;-70
2020/12/28 06:14:20;;;;;;;8.17;4.97;;;5.10;1.00;;;;;;5036009;28;20518;-70
2020/12/28 06:16:47;;;;;;;5.43;4.63;;;4.90;1.00;;;;;;5020982;28;20186;-71
2020/12/28 06:19:25;;;;;;;6.10;4.90;;;4.90;1.00;;;;;;5033267;28;20450;-71
2020/12/28 06:21:51;;;;;;;6.43;5.03;;;4.90;1.00;;;;;;5031717;28;20552;-70
2020/12/28 06:24:31;;;;;;;5.90;4.83;;;4.90;1.00;;;;;;5036334;28;20438;-60
2020/12/28 06:27:04;;;;;;;7.17;4.63;;;4.90;1.00;;;;;;5036701;28;20418;-60
2020/12/28 06:29:31;;;;;;;5.50;4.43;;;4.80;1.00;;;;;;5035092;28;20460;-60
2020/12/28 06:31:58;;;;;;;5.03;4.53;;;4.70;1.00;;;;;;5046032;28;20439;-59
2020/12/28 06:34:23;;;;;;;7.23;5.57;;;4.80;1.00;;;;;;5038021;28;21123;-71
2020/12/28 06:36:59;;;;;;;5.97;4.57;;;4.80;1.00;;;;;;5033014;28;20430;-70
2020/12/28 06:39:25;;;;;;;5.83;4.70;;;4.80;1.00;;;;;;5036174;28;20600;-60
2020/12/28 06:41:51;;;;;;;4.90;4.20;;;4.70;1.00;;;;;;5035581;28;20458;-74
2020/12/28 06:44:27;;;;;;;8.00;5.23;;;4.70;1.00;;;;;;5036291;28;20426;-70
2020/12/28 06:46:53;;;;;;;5.03;4.53;;;4.70;1.00;;;;;;5035697;28;20278;-60
2020/12/28 06:49:19;;;;;;;4.77;4.37;;;4.70;1.00;;;;;;5032133;28;20545;-59
2020/12/28 06:51:45;;;;;;;6.73;5.00;;;4.70;1.00;;;;;;5033363;28;20577;-69
2020/12/28 06:54:10;;;;;;;5.13;4.00;;;4.70;1.00;;;;;;5037316;28;20434;-70
2020/12/28 06:56:36;;;;;;;5.63;4.73;;;4.70;1.00;;;;;;5036598;28;20173;-72
2020/12/28 06:59:02;;;;;;;5.00;3.83;;;4.60;1.00;;;;;;5041522;28;20581;-71
2020/12/28 07:01:28;;;;;;;5.17;4.07;;;4.70;1.00;;;;;;5051971;28;20193;-69
2020/12/28 07:03:57;;;;;;;8.90;5.27;;;4.70;1.00;;;;;;5056408;28;20888;-69
2020/12/28 07:06:23;;;;;;;7.00;4.27;;;4.70;1.00;;;;;;5055759;28;20889;-70
2020/12/28 07:08:49;;;;;;;7.60;3.97;;;4.70;1.00;;;;;;5054651;28;20425;-59
2020/12/28 07:11:21;;;;;;;6.10;4.90;;;4.60;1.00;;;;;;5038438;28;20797;-71
2020/12/28 07:13:47;;;;;;;5.00;4.50;;;4.60;1.00;;;;;;5034619;28;20177;-70
2020/12/28 07:16:13;;;;;;;5.57;4.47;;;4.60;1.00;;;;;;5033967;28;20500;-60
2020/12/28 07:18:39;;;;;;;6.33;4.60;;;4.70;1.00;;;;;;5033202;28;20446;-59
2020/12/28 07:21:06;;;;;;;4.73;4.23;;;4.70;1.00;;;;;;5034525;28;20893;-71
2020/12/28 07:23:33;;;;;;;5.20;4.67;;;4.60;1.00;;;;;;5035496;28;20429;-60
2020/12/28 07:26:06;;;;;;;6.63;4.83;;;4.70;1.00;;;;;;5034268;28;20438;-59
2020/12/28 07:28:34;;;;;;;6.33;4.67;;;4.70;1.00;;;;;;5037793;28;20440;-60
2020/12/28 07:31:01;;;;;;;5.90;4.97;;;4.60;1.00;;;;;;5035334;28;20547;-59
2020/12/28 07:33:27;;;;;;;6.63;5.20;;;4.70;1.00;;;;;;5035782;28;20752;-72
2020/12/28 07:36:13;;;;;;;4.73;4.23;;;4.70;1.00;;;;;;5032597;28;20983;-59
2020/12/28 07:38:42;;;;;;;5.40;4.57;;;4.70;1.00;;;;;;5037318;28;20510;-60
2020/12/28 07:41:16;;;;;;;5.60;5.00;;;4.70;1.00;;;;;;5036367;28;20438;-59
2020/12/28 07:43:58;;;;;;;6.33;5.33;;;4.70;1.00;;;;;;5035339;28;20938;-59
2020/12/28 07:46:33;;;;;;;4.60;4.20;;;4.70;1.00;;;;;;5034310;28;20761;-60
2020/12/28 07:49:03;;;;;;;5.60;4.30;;;4.70;1.00;;;;;;5034926;28;20439;-69
2020/12/28 07:51:33;;;;;;;6.63;5.73;;;4.70;1.00;;;;;;5031664;28;20434;-69
2020/12/28 07:54:17;;;;;;;6.70;6.00;;;4.70;1.00;;;;;;5034352;28;20726;-59
2020/12/28 07:56:45;;;;;;;6.77;5.43;;;4.70;1.00;;;;;;5030543;28;20431;-70
2020/12/28 07:59:57;;;;;;;8.60;5.07;;;4.70;1.00;;;;;;5031346;28;20428;-60
2020/12/28 08:02:22;;;;;;;5.83;4.57;;;4.70;1.00;;;;;;5033849;28;20507;-60
2020/12/28 08:04:48;;;;;;;6.10;4.87;;;4.70;1.00;;;;;;5034855;28;20924;-69
2020/12/28 08:07:20;;;;;;;6.90;5.00;;;4.80;1.00;;;;;;5034993;28;20203;-60
2020/12/28 08:09:55;;;;;;;7.13;5.07;;;4.70;1.00;;;;;;5035327;28;20478;-70
2020/12/28 08:12:22;;;;;;;5.57;4.03;;;4.80;1.00;;;;;;5034620;28;20427;-68
2020/12/28 08:14:52;;;;;;;5.60;4.37;;;4.80;1.00;;;;;;5034853;28;20431;-68
2020/12/28 08:17:18;;;;;;;5.43;4.87;;;4.90;1.00;;;;;;5034667;28;20469;-68
2020/12/28 08:19:44;;;;;;;5.70;4.77;;;4.90;1.00;;;;;;5032675;28;20520;-69
2020/12/28 08:22:23;;;;;;;5.97;5.47;;;4.90;1.00;;;;;;5031672;28;20528;-68
2020/12/28 08:25:25;;;;;;;7.97;5.20;;;4.90;1.00;;;;;;5034553;28;20656;-69
2020/12/28 08:27:51;;;;;;;5.50;4.50;;;4.90;1.00;;;;;;5027631;28;20486;-60
2020/12/28 08:30:17;;;;;;;6.60;5.00;;;4.90;1.00;;;;;;5033870;28;20486;-60
2020/12/28 08:32:43;;;;;;;5.30;4.80;;;4.90;1.00;;;;;;5032699;28;20643;-60
2020/12/28 08:35:08;;;;;;;6.00;4.90;;;5.00;1.00;;;;;;5034327;28;20171;-69
2020/12/28 08:37:34;;;;;;;6.43;5.17;;;5.00;1.00;;;;;;5034106;28;20411;-68
2020/12/28 08:40:00;;;;;;;5.87;5.27;;;5.10;1.00;;;;;;5016828;28;20195;-60
2020/12/28 08:42:33;;;;;;;4.80;4.30;;;5.20;1.00;;;;;;5029666;28;20462;-72
2020/12/28 08:45:03;;;;;;;8.30;5.67;;;5.10;1.00;;;;;;5035833;28;20573;-59
2020/12/28 08:47:30;;;;;;;7.20;5.80;;;5.10;1.00;;;;;;5039349;28;20431;-71
2020/12/28 08:49:56;;;;;;;6.17;5.20;;;5.20;1.00;;;;;;5035142;28;20464;-59
2020/12/28 08:52:23;;;;;;;6.60;4.50;;;5.20;1.00;;;;;;5048671;28;20441;-61
2020/12/28 08:54:58;;;;;;;5.70;5.10;;;5.10;1.00;;;;;;5036865;28;20435;-71
2020/12/28 08:57:28;;;;;;;6.17;5.60;;;5.20;1.00;;;;;;5032798;28;20423;-73
2020/12/28 08:59:56;;;;;;;6.70;5.27;;;5.30;1.00;;;;;;5033026;28;20459;-61
2020/12/28 09:02:26;;;;;;;9.30;6.20;;;5.50;1.00;;;;;;5032989;28;20450;-70
2020/12/28 09:04:52;;;;;;;6.37;5.23;;;5.50;1.00;;;;;;5033994;28;20857;-60
2020/12/28 09:07:18;;;;;;;7.00;5.57;;;5.60;1.00;;;;;;5032878;28;20435;-59
2020/12/28 09:09:46;;;;;;;6.50;5.80;;;5.50;1.00;;;;;;5033747;28;20255;-70
2020/12/28 09:12:13;;;;;;;7.70;5.77;;;5.50;1.00;;;;;;5034206;28;20428;-59
2020/12/28 09:14:39;;;;;;;6.80;5.53;;;5.40;1.00;;;;;;5033121;28;20916;-70
2020/12/28 09:17:05;;;;;;;7.37;6.10;;;5.40;1.00;;;;;;5033863;28;20469;-69
2020/12/28 09:19:31;;;;;;;8.37;6.53;;;5.40;1.00;;;;;;5033758;28;20423;-70
2020/12/28 09:21:58;;;;;;;8.83;6.30;;;5.40;1.00;;;;;;5033513;28;20734;-59
2020/12/28 09:24:24;;;;;;;7.97;5.70;;;5.50;1.00;;;;;;5033692;28;20465;-60
2020/12/28 09:26:50;;;;;;;5.70;4.73;;;5.50;1.00;;;;;;5012353;28;20491;-71
2020/12/28 09:29:16;;;;;;;6.80;5.70;;;5.50;1.00;;;;;;5028813;28;20474;-60
2020/12/28 09:31:42;;;;;;;5.97;5.37;;;5.60;1.00;;;;;;5034850;28;20940;-70
2020/12/28 09:34:08;;;;;;;7.80;5.97;;;5.60;1.00;;;;;;5032011;28;20475;-68
2020/12/28 09:36:33;;;;;;;6.20;5.60;;;5.50;1.00;;;;;;5034459;28;20924;-60
2020/12/28 09:38:59;;;;;;;7.47;5.63;;;5.60;1.00;;;;;;5054393;28;20548;-60
2020/12/28 09:41:25;;;;;;;7.67;6.13;;;5.60;1.00;;;;;;5058041;28;20228;-59
2020/12/28 09:43:51;;;;;;;7.03;6.20;;;5.60;1.00;;;;;;5057276;28;20246;-68
2020/12/28 09:46:20;;;;;;;6.67;5.67;;;5.70;1.00;;;;;;5057155;28;20425;-60
2020/12/28 09:48:47;;;;;;;10.00;6.57;;;5.80;1.00;;;;;;5057343;28;20787;-59
2020/12/28 09:51:13;;;;;;;6.03;5.40;;;5.80;1.00;;;;;;5055949;28;20523;-59
2020/12/28 09:53:42;;;;;;;9.27;6.50;;;5.80;1.00;;;;;;5055970;28;20430;-59
2020/12/28 09:56:09;;;;;;;6.00;5.40;;;5.80;1.00;;;;;;5056885;28;20230;-60
2020/12/28 09:58:34;;;;;;;8.30;6.17;;;5.80;1.00;;;;;;5052235;28;20431;-59
2020/12/28 10:01:01;;;;;;;8.33;5.87;;;5.90;1.00;;;;;;5056710;28;20415;-60
2020/12/28 10:03:27;;;;;;;9.13;6.73;;;5.90;1.00;;;;;;5056625;28;20191;-59
2020/12/28 10:05:53;;;;;;;8.40;6.70;;;6.00;1.00;;;;;;5058338;28;20502;-60
2020/12/28 10:08:19;;;;;;;7.87;6.30;;;5.90;1.00;;;;;;5056799;28;20442;-60
2020/12/28 10:10:44;;;;;;;8.63;6.53;;;6.00;1.00;;;;;;5055749;28;21014;-60
2020/12/28 10:13:11;;;;;;;7.83;6.37;;;6.10;1.00;;;;;;5056704;28;20421;-60
2020/12/28 10:15:37;;;;;;;6.77;6.07;;;6.10;1.00;;;;;;5056757;28;20194;-60
2020/12/28 10:18:12;;;;;;;6.93;6.20;;;6.30;1.00;;;;;;5042148;28;20913;-59
2020/12/28 10:20:37;;;;;;;8.70;6.43;;;6.30;1.00;;;;;;5036665;28;20625;-59
2020/12/28 10:23:03;;;;;;;9.33;6.63;;;6.30;1.00;;;;;;5036572;28;20459;-59
2020/12/28 10:25:29;;;;;;;7.83;5.60;;;6.20;1.00;;;;;;5036561;28;20441;-60
2020/12/28 10:27:55;;;;;;;6.87;6.17;;;6.30;1.00;;;;;;5036478;28;20423;-60
2020/12/28 10:30:20;;;;;;;6.63;5.57;;;6.10;1.00;;;;;;5036223;28;20236;-59
2020/12/28 10:32:46;;;;;;;7.87;6.43;;;6.10;1.00;;;;;;5036482;28;20201;-60
2020/12/28 10:35:11;;;;;;;7.10;6.40;;;6.00;1.00;;;;;;5036359;28;20234;-68
2020/12/28 10:37:37;;;;;;;9.67;6.00;;;6.00;1.00;;;;;;5035368;28;20200;-59
2020/12/28 10:40:04;;;;;;;9.53;5.17;;;6.00;1.00;;;;;;5035199;28;20181;-67
2020/12/28 10:42:29;;;;;;;6.57;5.83;;;6.10;1.00;;;;;;5035236;28;20902;-67
2020/12/28 10:44:55;;;;;;;8.07;6.37;;;6.00;1.00;;;;;;5035039;28;20550;-67
2020/12/28 10:47:21;;;;;;;7.43;5.63;;;6.00;1.00;;;;;;5035897;28;20185;-59
2020/12/28 10:49:46;;;;;;;7.77;6.10;;;6.10;1.00;;;;;;5035703;28;20212;-59
2020/12/28 10:52:12;;;;;;;8.77;6.43;;;6.10;1.00;;;;;;5035763;28;20181;-67
2020/12/28 10:54:38;;;;;;;8.03;6.30;;;6.10;1.00;;;;;;5035977;28;20546;-59
2020/12/28 10:57:03;;;;;;;7.37;5.87;;;6.10;1.00;;;;;;5035804;28;20503;-67
2020/12/28 10:59:29;;;;;;;9.33;6.10;;;6.20;1.00;;;;;;5035645;28;20180;-59
2020/12/28 11:01:58;;;;;;;7.93;6.67;;;6.10;1.00;;;;;;5034590;28;20192;-67
2020/12/28 11:04:23;;;;;;;9.07;5.40;;;6.10;1.00;;;;;;5055491;28;20283;-67
2020/12/28 11:06:49;;;;;;;7.07;6.37;;;6.10;1.00;;;;;;5055275;28;20453;-67
2020/12/28 11:09:14;;;;;;;8.40;6.33;;;6.10;1.00;;;;;;5055245;28;20541;-59
2020/12/28 11:11:40;;;;;;;6.60;5.60;;;6.10;1.00;;;;;;5055443;28;20591;-58
2020/12/28 11:14:06;;;;;;;8.53;6.60;;;6.10;1.00;;;;;;5055052;28;20172;-68
2020/12/28 11:16:31;;;;;;;10.73;7.37;;;6.20;1.00;;;;;;5055331;28;20215;-67
2020/12/28 11:18:57;;;;;;;10.63;6.83;;;6.10;1.00;;;;;;5054321;28;20219;-67
2020/12/28 11:21:23;;;;;;;7.90;6.60;;;6.20;1.00;;;;;;5055329;28;20176;-61
2020/12/28 11:24:01;;;;;;;11.47;7.33;;;6.30;1.00;;;;;;5055079;28;20226;-60
2020/12/28 11:26:34;;;;;;;7.60;6.37;;;6.30;1.00;;;;;;5055158;28;20411;-60
2020/12/28 11:29:02;;;;;;;8.77;6.70;;;6.30;1.00;;;;;;5055103;28;20425;-67
2020/12/28 11:31:28;;;;;;;8.10;6.97;;;6.40;1.00;;;;;;5054990;28;20505;-68
2020/12/28 11:33:54;;;;;;;7.13;5.60;;;6.40;1.00;;;;;;5055238;28;20410;-59
2020/12/28 11:36:20;;;;;;;7.83;6.77;;;6.40;1.00;;;;;;5047779;28;20432;-68
2020/12/28 11:38:46;;;;;;;9.80;7.27;;;6.40;1.00;;;;;;5034995;28;20454;-62
2020/12/28 11:41:15;;;;;;;6.80;5.93;;;6.50;1.00;;;;;;5034991;28;20200;-68
2020/12/28 11:43:41;;;;;;;8.83;6.07;;;6.40;1.00;;;;;;5034852;28;20430;-67
2020/12/28 11:46:07;;;;;;;8.03;6.90;;;6.30;1.00;;;;;;5034687;28;20510;-60
2020/12/28 11:48:33;;;;;;;10.47;6.87;;;6.20;1.00;;;;;;5033722;28;20431;-59
2020/12/28 11:51:01;;;;;;;9.90;8.07;;;6.20;1.00;;;;;;5034648;28;20932;-60
2020/12/28 11:53:26;;;;;;;9.27;7.40;;;6.20;1.00;;;;;;5034686;28;20497;-67
2020/12/28 11:56:04;;;;;;;11.30;7.40;;;6.20;1.00;;;;;;5033609;28;20431;-59
2020/12/28 11:58:35;;;;;;;9.77;6.80;;;6.20;1.00;;;;;;5034884;28;20157;-59
2020/12/28 12:01:02;;;;;;;6.80;6.13;;;6.10;1.00;;;;;;5014114;28;20432;-68
2020/12/28 12:03:32;;;;;;;8.40;6.87;;;6.10;1.00;;;;;;5014779;28;20420;-68
2020/12/28 12:05:59;;;;;;;8.23;6.67;;;6.20;1.00;;;;;;5013607;28;20502;-58
2020/12/28 12:08:28;;;;;;;9.73;7.17;;;6.20;1.00;;;;;;5014715;28;20491;-68
2020/12/28 12:10:53;;;;;;;9.53;6.40;;;6.10;1.00;;;;;;5013855;28;20474;-66
2020/12/28 12:13:20;;;;;;;8.93;6.67;;;6.10;1.00;;;;;;5015240;28;20428;-67
2020/12/28 12:15:47;;;;;;;10.90;7.80;;;6.00;1.00;;;;;;5015547;28;20176;-66
2020/12/28 12:18:14;;;;;;;7.90;6.50;;;6.00;1.00;;;;;;5015236;28;20443;-70
2020/12/28 12:20:42;;;;;;;8.40;7.07;;;6.00;1.00;;;;;;5013060;28;20511;-68
2020/12/28 12:23:08;;;;;;;9.27;7.57;;;5.90;1.00;;;;;;5013713;28;20424;-60
2020/12/28 12:25:35;;;;;;;8.13;6.87;;;5.90;1.00;;;;;;5024461;28;20522;-60
2020/12/28 12:28:01;;;;;;;7.73;6.77;;;5.90;1.00;;;;;;5034340;28;20517;-60
2020/12/28 12:30:27;;;;;;;8.40;7.50;;;6.00;1.00;;;;;;5034075;28;20506;-60
2020/12/28 12:32:53;;;;;;;9.17;7.33;;;5.90;1.00;;;;;;5034533;28;20426;-61
2020/12/28 12:35:19;;;;;;;9.27;8.00;;;5.90;1.00;;;;;;5034629;28;20427;-67
2020/12/28 12:37:44;;;;;;;7.37;5.87;;;6.00;1.00;;;;;;5037424;28;20222;-60
2020/12/28 12:40:10;;;;;;;9.33;7.20;;;5.90;1.00;;;;;;5039665;28;20208;-68
2020/12/28 12:42:36;;;;;;;10.67;7.30;;;5.90;1.00;;;;;;5035963;28;20234;-68
2020/12/28 12:45:02;;;;;;;11.97;7.63;;;6.00;1.00;;;;;;5033879;28;20184;-66
2020/12/28 12:47:28;;;;;;;9.67;7.30;;;5.90;1.00;;;;;;5034325;28;20180;-67
2020/12/28 12:49:54;;;;;;;8.70;7.47;;;5.90;1.00;;;;;;5033635;28;20463;-67
2020/12/28 12:52:27;;;;;;;9.03;7.50;;;5.90;1.00;;;;;;5034173;28;20168;-69
2020/12/28 12:54:53;;;;;;;9.70;7.13;;;6.00;1.00;;;;;;5038190;28;20210;-59
2020/12/28 12:57:19;;;;;;;9.93;7.13;;;6.00;1.00;;;;;;5053319;28;20419;-67
2020/12/28 13:02:31;;;;;;;12.00;8.57;;;5.90;1.00;;;;;;5054351;28;20167;-58
2020/12/28 13:05:08;;;;;;;7.87;6.80;;;5.90;1.00;;;;;;5054146;28;20498;-62
2020/12/28 13:07:36;;;;;;;10.03;7.87;;;5.80;1.00;;;;;;5054219;28;20467;-60
2020/12/28 13:10:02;;;;;;;12.27;8.20;;;5.70;1.00;;;;;;5053979;28;20450;-69
2020/12/28 13:12:28;;;;;;;9.13;7.30;;;5.60;1.00;;;;;;5055795;28;20427;-68